»·PEaware :: N101JP KSAN-KBUR

N101JP :: KSAN-KBUR

FLIGHT INFORMATION

Flight Status: Arrived
Operator: Privately registered:
United States
More flights under this callsign
Pilot: James T. (870)
Aircraft: PILATUS PC-12 EAGLE
(PC12)
More flights by this aircraft type
Origin: KSAN San Diego Intl-Lindbergh
United States
Destination: KBUR Bob Hope-Burbank
United States
More flights between these airports :: More routes between these airports
Route: PEBLE4 SLI V23 LAX LAX316 SILEX
File this flight plan on PilotEdge
Remarks:
Altitude:
(Current/Filed)
80ft
Speed:
(Current/Filed)
200kts
Departed: 14-Jan-15 04:30 PM
Arrived: 14-Jan-15 05:13 PM
Distance/Time
Traveled:
105nm/0:42
Distance/Time
To Go:
Arrived

Flight Plot

Page will automatically refresh every two minutes.


Map Options




Map Legend


Flown Route
Filed Route
Departure Airport
Arrival Airport
Navaid (VOR, NDB)
Fix

Horizontal Profiles

Position Reports

Time Latitude Longitude Heading Altitude Ground
Speed
14-Jan-15 16:13 32.732129 -117.177358 80 23ft 0kts
14-Jan-15 16:14 32.732129 -117.177358 80 23ft 0kts
14-Jan-15 16:15 32.732129 -117.177358 80 23ft 0kts
14-Jan-15 16:16 32.732129 -117.177358 80 23ft 0kts
14-Jan-15 16:17 32.732129 -117.177358 80 23ft 0kts
14-Jan-15 16:18 32.732129 -117.177358 80 23ft 0kts
14-Jan-15 16:19 32.732129 -117.177358 80 23ft 0kts
14-Jan-15 16:20 32.732129 -117.177358 80 23ft 0kts
14-Jan-15 16:21 32.732129 -117.177358 80 23ft 0kts
14-Jan-15 16:22 32.732129 -117.177358 80 23ft 0kts
14-Jan-15 16:23 32.732129 -117.177358 80 23ft 0kts
14-Jan-15 16:24 32.731762 -117.176779 125 22ft 8kts
14-Jan-15 16:25 32.731014 -117.175567 159 23ft 0kts
14-Jan-15 16:26 32.730970 -117.179070 286 23ft 74kts
14-Jan-15 16:27 32.746507 -117.217146 303 1171ft 152kts
14-Jan-15 16:28 32.769464 -117.260320 303 2916ft 157kts
14-Jan-15 16:29 32.792492 -117.304368 303 4694ft 158kts
14-Jan-15 16:30 32.815116 -117.348185 303 6418ft 155kts
14-Jan-15 16:31 32.837868 -117.391483 303 7927ft 162kts
14-Jan-15 16:32 32.866487 -117.444257 303 7983ft 209kts
14-Jan-15 16:33 32.916523 -117.483941 329 7974ft 223kts
14-Jan-15 16:34 32.971366 -117.520511 329 7964ft 228kts
14-Jan-15 16:35 33.013858 -117.576055 307 7964ft 227kts
14-Jan-15 16:36 33.046698 -117.625122 307 7968ft 226kts
14-Jan-15 16:37 33.091722 -117.694379 306 7969ft 227kts
14-Jan-15 16:38 33.123590 -117.744411 306 7969ft 226kts
14-Jan-15 16:39 33.161669 -117.804280 306 7971ft 226kts
14-Jan-15 16:40 33.211440 -117.846571 339 7985ft 229kts
14-Jan-15 16:41 33.272508 -117.868923 340 7983ft 230kts
14-Jan-15 16:42 33.333930 -117.891162 340 7987ft 231kts
14-Jan-15 16:43 33.395497 -117.913479 340 7984ft 231kts
14-Jan-15 16:44 33.456987 -117.935796 340 7978ft 231kts
14-Jan-15 16:45 33.518446 -117.958137 340 7980ft 231kts
14-Jan-15 16:46 33.580195 -117.980619 340 7984ft 235kts
14-Jan-15 16:47 33.642917 -118.003488 340 7984ft 237kts
14-Jan-15 16:48 33.706130 -118.026572 340 7986ft 237kts
14-Jan-15 16:49 33.769268 -118.050262 331 7963ft 237kts
14-Jan-15 16:50 33.798971 -118.116646 286 7974ft 230kts
14-Jan-15 16:51 33.817802 -118.190023 286 7985ft 229kts
14-Jan-15 16:52 33.836340 -118.263094 286 7990ft 227kts
14-Jan-15 16:53 33.854673 -118.335553 285 7994ft 225kts
14-Jan-15 16:54 33.892593 -118.388568 314 7988ft 202kts
14-Jan-15 16:55 33.933863 -118.432224 322 7983ft 194kts
14-Jan-15 16:56 33.979897 -118.462784 328 7989ft 185kts
14-Jan-15 16:57 34.024736 -118.491198 326 7991ft 180kts
14-Jan-15 16:58 34.070608 -118.525785 300 6740ft 210kts
14-Jan-15 16:59 34.096726 -118.589809 293 5268ft 216kts
14-Jan-15 17:00 34.121594 -118.654964 293 4003ft 204kts
14-Jan-15 17:01 34.155905 -118.687994 21 3880ft 188kts
14-Jan-15 17:02 34.200197 -118.659357 28 3794ft 150kts
14-Jan-15 17:03 34.200827 -118.613584 88 3691ft 139kts
14-Jan-15 17:04 34.200131 -118.567387 83 3693ft 136kts
14-Jan-15 17:05 34.199678 -118.523050 85 3306ft 129kts
14-Jan-15 17:06 34.199178 -118.478396 88 2628ft 137kts
14-Jan-15 17:07 34.198668 -118.433380 91 1880ft 130kts
14-Jan-15 17:08 34.198185 -118.392292 94 1208ft 112kts
14-Jan-15 17:09 34.197787 -118.358037 90 783ft 36kts
14-Jan-15 17:10 34.197993 -118.355299 32 784ft 11kts

Navigation Log

Ident Type
Flight plan parsing failed, navigation log unavailable